createdAt,value
2023-01-09T00:00:33.439Z,4.13
2023-01-09T00:02:59.913Z,2.93
2023-01-09T00:05:26.481Z,3.20
2023-01-09T00:07:52.984Z,2.67
2023-01-09T00:10:20.524Z,2.70
2023-01-09T00:12:47.067Z,3.17
2023-01-09T00:15:14.292Z,2.37
2023-01-09T00:17:41.559Z,2.40
2023-01-09T00:20:09.914Z,4.73
2023-01-09T00:22:37.701Z,3.20
2023-01-09T00:25:04.593Z,3.10
2023-01-09T00:27:32.690Z,2.50
2023-01-09T00:29:59.259Z,1.87
2023-01-09T00:32:26.012Z,2.50
2023-01-09T00:34:53.257Z,2.40
2023-01-09T00:37:19.812Z,3.50
2023-01-09T00:39:46.311Z,2.77
2023-01-09T00:42:17.920Z,1.67
2023-01-09T00:44:52.069Z,3.90
2023-01-09T00:47:23.857Z,2.87
2023-01-09T00:49:52.071Z,1.87
2023-01-09T00:52:19.379Z,1.43
2023-01-09T00:54:46.404Z,0.93
2023-01-09T00:57:14.155Z,2.07
2023-01-09T00:59:42.029Z,3.87
2023-01-09T01:02:09.006Z,2.13
2023-01-09T01:05:07.993Z,7.30
2023-01-09T01:07:41.519Z,4.60
2023-01-09T01:10:12.022Z,6.57
2023-01-09T01:12:40.230Z,6.70
2023-01-09T01:15:07.739Z,4.90
2023-01-09T01:17:36.636Z,6.37
2023-01-09T01:20:05.627Z,3.43
2023-01-09T01:22:32.310Z,3.50
2023-01-09T01:24:58.868Z,3.30
2023-01-09T01:27:25.591Z,1.83
2023-01-09T01:29:52.551Z,1.80
2023-01-09T01:32:19.267Z,2.00
2023-01-09T01:34:47.582Z,1.10
2023-01-09T01:37:14.308Z,0.83
2023-01-09T01:39:41.320Z,0.90
2023-01-09T01:42:07.890Z,2.07
2023-01-09T01:45:06.355Z,2.30
2023-01-09T01:47:52.766Z,2.70
2023-01-09T01:50:28.993Z,1.20
2023-01-09T01:53:07.618Z,0.97
2023-01-09T01:55:36.347Z,5.30
2023-01-09T01:58:05.632Z,3.73
2023-01-09T02:00:36.971Z,4.60
2023-01-09T02:03:06.148Z,3.10
2023-01-09T02:05:33.302Z,1.90
2023-01-09T02:08:00.135Z,1.27
2023-01-09T02:10:26.852Z,0.60
2023-01-09T02:12:53.537Z,2.20
2023-01-09T02:15:20.827Z,2.20
2023-01-09T02:18:05.760Z,1.10
2023-01-09T02:21:09.547Z,0.90
2023-01-09T02:23:42.638Z,1.23
2023-01-09T02:26:34.086Z,1.93
2023-01-09T02:29:03.561Z,1.53
2023-01-09T02:31:39.086Z,2.57
2023-01-09T02:34:35.034Z,0.80
2023-01-09T02:37:37.263Z,0.80
2023-01-09T02:40:27.268Z,1.23
2023-01-09T02:42:55.657Z,1.40
2023-01-09T02:45:22.228Z,2.43
2023-01-09T02:47:48.841Z,3.93
2023-01-09T02:50:30.965Z,1.40
2023-01-09T02:53:17.826Z,1.93
2023-01-09T02:55:53.438Z,1.87
2023-01-09T02:59:04.405Z,3.47
2023-01-09T03:02:17.391Z,2.00
2023-01-09T03:04:59.937Z,3.07
2023-01-09T03:07:32.630Z,2.57
2023-01-09T03:10:08.447Z,5.00
2023-01-09T03:12:37.699Z,2.30
2023-01-09T03:15:06.725Z,2.80
2023-01-09T03:17:40.433Z,1.77
2023-01-09T03:20:10.397Z,1.43
2023-01-09T03:22:38.822Z,5.03
2023-01-09T03:25:06.077Z,3.87
2023-01-09T03:27:32.758Z,4.07
2023-01-09T03:29:59.709Z,3.07
2023-01-09T03:32:27.835Z,1.93
2023-01-09T03:34:54.389Z,3.57
2023-01-09T03:37:20.998Z,3.27
2023-01-09T03:39:47.446Z,7.10
2023-01-09T03:42:13.917Z,2.33
2023-01-09T03:44:40.712Z,3.73
2023-01-09T03:47:07.282Z,4.43
2023-01-09T03:49:33.780Z,1.60
2023-01-09T03:52:00.252Z,2.10
2023-01-09T03:54:26.784Z,4.03
2023-01-09T03:56:53.319Z,2.60
2023-01-09T03:59:19.855Z,2.80
2023-01-09T04:01:46.421Z,4.60
2023-01-09T04:04:12.997Z,4.97
2023-01-09T04:06:39.984Z,1.87
2023-01-09T04:09:06.500Z,6.13
2023-01-09T04:11:33.006Z,3.67
2023-01-09T04:14:01.882Z,2.17
2023-01-09T04:16:28.756Z,2.93
2023-01-09T04:18:55.314Z,4.27
2023-01-09T04:21:21.935Z,6.50
2023-01-09T04:23:48.481Z,7.97
2023-01-09T04:26:15.027Z,4.57
2023-01-09T04:28:41.587Z,5.87
2023-01-09T04:31:08.512Z,3.43
2023-01-09T04:33:35.033Z,8.17
2023-01-09T04:36:01.644Z,7.37
2023-01-09T04:38:28.325Z,10.67
2023-01-09T04:40:54.884Z,9.00
2023-01-09T04:43:21.551Z,7.93
2023-01-09T04:45:48.105Z,10.43
2023-01-09T04:48:14.832Z,7.17
2023-01-09T04:50:41.396Z,8.00
2023-01-09T04:53:08.026Z,5.17
2023-01-09T04:55:34.642Z,8.57
2023-01-09T04:58:01.151Z,5.07
2023-01-09T05:00:27.732Z,6.20
2023-01-09T05:02:54.261Z,5.17
2023-01-09T05:05:20.901Z,11.07
2023-01-09T05:07:47.380Z,7.50
2023-01-09T05:10:13.957Z,5.03
2023-01-09T05:12:40.533Z,7.70
2023-01-09T05:15:08.865Z,5.63
2023-01-09T05:17:35.832Z,6.83
2023-01-09T05:20:02.382Z,10.77
2023-01-09T05:22:29.017Z,5.33
2023-01-09T05:24:55.968Z,5.77
2023-01-09T05:27:22.525Z,3.37
2023-01-09T05:29:49.086Z,3.73
2023-01-09T05:32:15.587Z,5.33
2023-01-09T05:34:42.081Z,5.47
2023-01-09T05:37:11.113Z,5.53
2023-01-09T05:39:37.628Z,3.67
2023-01-09T05:42:04.208Z,5.90
2023-01-09T05:44:30.713Z,5.67
2023-01-09T05:46:57.184Z,7.03
2023-01-09T05:49:23.826Z,8.53
2023-01-09T05:51:50.298Z,10.50
2023-01-09T05:54:16.784Z,6.73
2023-01-09T05:56:43.262Z,6.57
2023-01-09T05:59:09.800Z,4.23
2023-01-09T06:01:36.408Z,9.93
2023-01-09T06:04:02.993Z,5.23
2023-01-09T06:06:29.536Z,4.23
2023-01-09T06:08:56.034Z,5.00
2023-01-09T06:11:22.562Z,5.13
2023-01-09T06:13:49.115Z,6.63
2023-01-09T06:16:15.718Z,7.20
2023-01-09T06:18:42.295Z,6.07
2023-01-09T06:21:08.868Z,5.37
2023-01-09T06:23:35.353Z,5.83
2023-01-09T06:26:01.932Z,9.07
2023-01-09T06:28:28.848Z,8.20
2023-01-09T06:30:57.997Z,5.73
2023-01-09T06:33:24.575Z,5.13
2023-01-09T06:35:51.097Z,7.87
2023-01-09T06:38:17.597Z,8.07
2023-01-09T06:40:44.157Z,3.73
2023-01-09T06:43:10.769Z,6.97
2023-01-09T06:45:37.305Z,10.10
2023-01-09T06:48:03.924Z,6.23
2023-01-09T06:50:32.777Z,3.70
2023-01-09T06:52:59.274Z,6.30
2023-01-09T06:55:26.502Z,3.93
2023-01-09T06:57:55.758Z,8.00
2023-01-09T07:00:22.367Z,8.23
2023-01-09T07:02:48.951Z,9.63
2023-01-09T07:05:15.463Z,4.17
2023-01-09T07:07:41.960Z,7.53
2023-01-09T07:10:09.699Z,4.20
2023-01-09T07:12:36.282Z,4.13
2023-01-09T07:15:03.050Z,6.60
2023-01-09T07:17:29.549Z,7.57
2023-01-09T07:19:56.030Z,4.27
2023-01-09T07:22:22.517Z,7.30
2023-01-09T07:24:49.140Z,6.77
2023-01-09T07:27:15.930Z,6.33
2023-01-09T07:29:42.476Z,5.70
2023-01-09T07:32:09.052Z,5.63
2023-01-09T07:34:35.889Z,6.30
2023-01-09T07:37:02.460Z,4.77
2023-01-09T07:39:28.993Z,5.47
2023-01-09T07:41:55.473Z,4.93
2023-01-09T07:44:22.002Z,5.67
2023-01-09T07:46:48.502Z,5.60
2023-01-09T07:49:15.018Z,9.80
2023-01-09T07:51:43.348Z,9.07
2023-01-09T07:54:11.416Z,9.60
2023-01-09T07:56:38.378Z,7.57
2023-01-09T07:59:04.922Z,9.00
2023-01-09T08:01:32.017Z,10.50
2023-01-09T08:03:59.171Z,7.83
2023-01-09T08:06:25.658Z,10.83
2023-01-09T08:08:52.181Z,6.73
2023-01-09T08:11:18.687Z,7.77
2023-01-09T08:13:45.235Z,5.43
2023-01-09T08:16:11.789Z,6.57
2023-01-09T08:18:38.306Z,6.03
2023-01-09T08:21:04.920Z,8.47
2023-01-09T08:23:31.456Z,3.97
2023-01-09T08:25:58.030Z,11.13
2023-01-09T08:28:24.588Z,7.87
2023-01-09T08:30:51.279Z,9.83
2023-01-09T08:33:17.801Z,4.30
2023-01-09T08:35:45.015Z,10.93
2023-01-09T08:38:11.639Z,9.07
2023-01-09T08:40:38.608Z,8.17
2023-01-09T08:43:23.670Z,9.97
2023-01-09T08:46:09.242Z,8.30
2023-01-09T08:48:35.804Z,10.30
2023-01-09T08:51:02.499Z,13.83
2023-01-09T08:53:29.747Z,13.17
2023-01-09T08:55:56.220Z,17.30
2023-01-09T08:58:22.777Z,11.03
2023-01-09T09:00:49.317Z,9.83
2023-01-09T09:03:17.401Z,13.07
2023-01-09T09:05:46.057Z,10.33
2023-01-09T09:08:13.292Z,8.03
2023-01-09T09:10:39.792Z,6.83
2023-01-09T09:13:06.330Z,7.47
2023-01-09T09:15:34.378Z,11.00
2023-01-09T09:18:03.411Z,9.40
2023-01-09T09:20:32.594Z,6.13
2023-01-09T09:22:59.211Z,4.70
2023-01-09T09:25:26.625Z,6.83
2023-01-09T09:27:54.202Z,8.20
2023-01-09T09:30:20.779Z,5.23
2023-01-09T09:32:47.366Z,10.43
2023-01-09T09:35:14.217Z,9.70
2023-01-09T09:37:40.873Z,9.50
2023-01-09T09:40:19.774Z,6.87
2023-01-09T09:43:27.930Z,11.60
2023-01-09T09:45:59.608Z,7.57
2023-01-09T09:48:29.215Z,9.17
2023-01-09T09:51:17.912Z,7.67
2023-01-09T09:54:00.033Z,8.43
2023-01-09T09:56:29.135Z,8.63
2023-01-09T09:59:15.012Z,7.73
2023-01-09T10:01:49.408Z,6.20
2023-01-09T10:04:19.574Z,8.50
2023-01-09T10:06:54.740Z,5.87
2023-01-09T10:09:41.436Z,6.80
2023-01-09T10:12:08.243Z,7.87
2023-01-09T10:14:34.814Z,5.53
2023-01-09T10:17:30.749Z,4.90
2023-01-09T10:20:11.822Z,7.80
2023-01-09T10:22:50.353Z,4.20
2023-01-09T10:25:30.582Z,8.83
2023-01-09T10:28:12.250Z,7.47
2023-01-09T10:30:42.738Z,6.07
2023-01-09T10:33:26.304Z,7.23
2023-01-09T10:35:58.814Z,5.67
2023-01-09T10:38:31.923Z,4.33
2023-01-09T10:41:07.622Z,6.17
2023-01-09T10:43:49.283Z,6.77
2023-01-09T10:46:22.677Z,8.43
2023-01-09T10:48:53.241Z,3.20
2023-01-09T10:51:27.768Z,9.63
2023-01-09T10:53:56.042Z,6.77
2023-01-09T10:56:37.381Z,8.40
2023-01-09T10:59:03.884Z,5.53
2023-01-09T11:01:33.793Z,5.07
2023-01-09T11:04:02.317Z,7.63
2023-01-09T11:06:46.805Z,7.00
2023-01-09T11:09:15.256Z,7.80
2023-01-09T11:11:42.077Z,6.83
2023-01-09T11:14:15.886Z,5.67
2023-01-09T11:16:56.312Z,6.27
2023-01-09T11:19:24.138Z,7.27
2023-01-09T11:21:50.781Z,5.87
2023-01-09T11:24:23.896Z,8.53
2023-01-09T11:26:53.785Z,5.67
2023-01-09T11:29:24.660Z,5.60
2023-01-09T11:31:56.895Z,5.57
2023-01-09T11:34:26.398Z,6.47
2023-01-09T11:36:54.799Z,10.23
2023-01-09T11:39:26.523Z,5.70
2023-01-09T11:41:55.743Z,6.67
2023-01-09T11:44:22.787Z,5.73
2023-01-09T11:46:49.408Z,5.33
2023-01-09T11:49:23.603Z,5.60
2023-01-09T11:52:19.914Z,6.97
2023-01-09T11:55:09.174Z,4.80
2023-01-09T11:57:35.733Z,5.00
2023-01-09T12:00:14.029Z,4.00
2023-01-09T12:03:04.729Z,4.40
2023-01-09T12:06:08.825Z,7.27
2023-01-09T12:08:50.640Z,4.80
2023-01-09T12:11:22.171Z,4.33
2023-01-09T12:14:00.630Z,4.87
2023-01-09T12:16:59.392Z,4.27
2023-01-09T12:19:48.046Z,3.13
2023-01-09T12:22:43.123Z,5.97
2023-01-09T12:25:29.314Z,5.03
2023-01-09T12:28:10.826Z,5.60
2023-01-09T12:31:05.503Z,3.83
2023-01-09T12:33:35.125Z,7.87
2023-01-09T12:36:20.584Z,2.80
2023-01-09T12:38:57.101Z,5.93
2023-01-09T12:41:42.948Z,4.43
2023-01-09T12:44:36.515Z,6.80
2023-01-09T12:47:40.490Z,8.37
2023-01-09T12:50:07.098Z,5.60
2023-01-09T12:52:44.192Z,4.00
2023-01-09T12:55:23.917Z,4.77
2023-01-09T12:57:56.245Z,6.03
2023-01-09T13:00:27.423Z,3.67
2023-01-09T13:03:12.966Z,4.23
2023-01-09T13:05:44.317Z,3.70
2023-01-09T13:08:39.048Z,3.80
2023-01-09T13:11:20.317Z,3.70
2023-01-09T13:13:54.429Z,6.57
2023-01-09T13:16:27.095Z,7.70
2023-01-09T13:19:03.634Z,5.17
2023-01-09T13:21:30.979Z,4.70
2023-01-09T13:24:19.206Z,5.13
2023-01-09T13:26:51.288Z,7.87
2023-01-09T13:29:40.487Z,4.37
2023-01-09T13:32:51.544Z,7.17
2023-01-09T13:35:18.041Z,4.67
2023-01-09T13:37:51.819Z,3.07
2023-01-09T13:40:21.262Z,5.37
2023-01-09T13:43:09.986Z,6.83
2023-01-09T13:45:39.457Z,8.40
2023-01-09T13:48:10.089Z,4.87
2023-01-09T13:50:40.908Z,7.27
2023-01-09T13:53:19.823Z,3.20
2023-01-09T13:55:58.902Z,3.27
2023-01-09T13:58:54.338Z,6.13
2023-01-09T14:01:39.890Z,3.10
2023-01-09T14:04:14.668Z,4.50
2023-01-09T14:06:41.508Z,3.33
2023-01-09T14:09:21.509Z,6.63
2023-01-09T14:11:48.975Z,5.80
2023-01-09T14:14:33.234Z,5.97
2023-01-09T14:17:03.500Z,4.53
2023-01-09T14:19:37.388Z,5.93
2023-01-09T14:22:05.710Z,7.00
2023-01-09T14:24:47.131Z,3.30
2023-01-09T14:28:03.517Z,5.23
2023-01-09T14:30:38.733Z,5.10
2023-01-09T14:33:26.721Z,4.93
2023-01-09T14:36:08.423Z,6.53
2023-01-09T14:38:41.038Z,7.47
2023-01-09T14:41:44.356Z,5.40
2023-01-09T14:44:27.505Z,6.57
2023-01-09T14:46:56.481Z,5.70
2023-01-09T14:49:40.767Z,13.60
2023-01-09T14:52:29.524Z,7.73
2023-01-09T14:55:01.142Z,6.43
2023-01-09T14:57:31.609Z,7.03
2023-01-09T15:00:14.499Z,7.30
2023-01-09T15:02:42.550Z,8.37
2023-01-09T15:05:13.506Z,6.83
2023-01-09T15:07:53.587Z,5.77
2023-01-09T15:10:21.937Z,5.40
2023-01-09T15:12:51.619Z,5.53
2023-01-09T15:15:20.738Z,6.27
2023-01-09T15:17:55.205Z,5.80
2023-01-09T15:20:29.980Z,5.23
2023-01-09T15:22:57.696Z,7.23
2023-01-09T15:25:41.012Z,8.47
2023-01-09T15:28:32.439Z,6.50
2023-01-09T15:31:15.617Z,6.67
2023-01-09T15:33:45.212Z,6.03
2023-01-09T15:36:24.915Z,7.73
2023-01-09T15:38:52.968Z,7.17
2023-01-09T15:41:44.218Z,7.93
2023-01-09T15:44:26.058Z,8.10
2023-01-09T15:46:57.820Z,8.23
2023-01-09T15:49:25.114Z,6.80
2023-01-09T15:51:52.082Z,10.83
2023-01-09T15:54:28.762Z,6.03
2023-01-09T15:56:55.326Z,10.80
2023-01-09T15:59:23.435Z,9.33
2023-01-09T16:02:17.842Z,8.37
2023-01-09T16:04:44.440Z,6.80
2023-01-09T16:07:16.145Z,7.50
2023-01-09T16:09:47.704Z,4.73
2023-01-09T16:12:19.501Z,5.70
2023-01-09T16:14:51.365Z,5.20
2023-01-09T16:17:20.265Z,8.67
2023-01-09T16:19:55.773Z,12.53
2023-01-09T16:22:31.033Z,9.17
2023-01-09T16:25:03.558Z,7.33
2023-01-09T16:27:34.353Z,10.40
2023-01-09T16:30:04.404Z,10.77
2023-01-09T16:32:33.808Z,11.17
2023-01-09T16:35:06.723Z,14.03
2023-01-09T16:37:33.923Z,10.80
2023-01-09T16:40:12.632Z,11.83
2023-01-09T16:42:57.796Z,10.70
2023-01-09T16:45:26.834Z,13.43
2023-01-09T16:47:53.679Z,10.47
2023-01-09T16:50:21.495Z,9.17
2023-01-09T16:52:47.997Z,7.73
2023-01-09T16:55:14.564Z,10.87
2023-01-09T16:57:41.932Z,6.73
2023-01-09T17:00:18.379Z,9.67
2023-01-09T17:02:45.442Z,7.00
2023-01-09T17:05:12.214Z,9.40
2023-01-09T17:07:38.925Z,9.67
2023-01-09T17:10:06.387Z,7.30
2023-01-09T17:12:32.869Z,10.43
2023-01-09T17:15:01.426Z,5.97
2023-01-09T17:17:27.940Z,6.10
2023-01-09T17:19:54.433Z,7.97
2023-01-09T17:22:20.968Z,6.13
2023-01-09T17:25:08.715Z,7.53
2023-01-09T17:27:56.659Z,9.67
2023-01-09T17:30:23.156Z,8.70
2023-01-09T17:32:52.000Z,6.83
2023-01-09T17:35:18.573Z,9.23
2023-01-09T17:37:45.076Z,6.33
2023-01-09T17:40:23.176Z,3.93
2023-01-09T17:42:49.689Z,6.50
2023-01-09T17:45:16.235Z,3.10
2023-01-09T17:47:42.899Z,7.03
2023-01-09T17:50:31.163Z,5.83
2023-01-09T17:52:57.662Z,6.47
2023-01-09T17:55:26.787Z,5.00
2023-01-09T17:57:53.488Z,5.63
2023-01-09T18:00:27.536Z,9.40
2023-01-09T18:02:55.474Z,6.60
2023-01-09T18:05:24.297Z,8.60
2023-01-09T18:07:51.255Z,12.17
2023-01-09T18:10:20.603Z,7.63
2023-01-09T18:12:50.154Z,6.63
2023-01-09T18:15:16.904Z,10.37
2023-01-09T18:17:43.710Z,12.27
2023-01-09T18:20:10.797Z,9.13
2023-01-09T18:22:37.804Z,10.07
2023-01-09T18:25:04.943Z,9.30
2023-01-09T18:27:31.687Z,12.37
2023-01-09T18:30:01.702Z,13.27
2023-01-09T18:32:32.169Z,14.70
2023-01-09T18:34:58.723Z,15.20
2023-01-09T18:37:25.239Z,10.97
2023-01-09T18:39:51.759Z,16.77
2023-01-09T18:42:18.334Z,15.23
2023-01-09T18:44:44.814Z,14.17
2023-01-09T18:47:11.563Z,17.13
2023-01-09T18:49:38.410Z,15.83
2023-01-09T18:52:07.475Z,16.70
2023-01-09T18:54:38.228Z,16.60
2023-01-09T18:57:04.969Z,15.93
2023-01-09T18:59:33.951Z,13.63
2023-01-09T19:02:02.202Z,16.57
2023-01-09T19:04:29.078Z,12.03
2023-01-09T19:06:57.190Z,15.53
2023-01-09T19:09:23.913Z,15.33
2023-01-09T19:11:50.447Z,15.43
2023-01-09T19:14:17.148Z,12.80
2023-01-09T19:16:43.790Z,15.93
2023-01-09T19:19:10.707Z,12.97
2023-01-09T19:21:37.372Z,8.70
2023-01-09T19:24:04.153Z,8.20
2023-01-09T19:26:31.202Z,13.83
2023-01-09T19:29:09.410Z,11.57
2023-01-09T19:31:36.349Z,11.63
2023-01-09T19:34:02.982Z,9.23
2023-01-09T19:36:29.618Z,9.43
2023-01-09T19:39:00.988Z,9.83
2023-01-09T19:41:28.682Z,8.23
2023-01-09T19:43:55.279Z,14.27
2023-01-09T19:46:24.340Z,12.63
2023-01-09T19:48:54.473Z,10.53
2023-01-09T19:51:22.244Z,9.67
2023-01-09T19:54:03.443Z,13.23
2023-01-09T19:56:32.156Z,14.93
2023-01-09T19:59:00.999Z,10.73
2023-01-09T20:01:33.375Z,8.10
2023-01-09T20:04:07.549Z,8.90
2023-01-09T20:06:35.572Z,11.60
2023-01-09T20:09:04.404Z,15.60
2023-01-09T20:11:32.432Z,12.87
2023-01-09T20:13:59.080Z,14.77
2023-01-09T20:16:28.635Z,13.23
2023-01-09T20:18:58.719Z,9.63
2023-01-09T20:21:28.573Z,11.53
2023-01-09T20:23:58.738Z,10.93
2023-01-09T20:26:26.554Z,12.57
2023-01-09T20:28:53.751Z,12.50
2023-01-09T20:31:22.089Z,11.63
2023-01-09T20:33:49.401Z,10.40
2023-01-09T20:36:15.998Z,9.67
2023-01-09T20:38:44.871Z,9.97
2023-01-09T20:41:22.611Z,12.63
2023-01-09T20:43:55.664Z,11.17
2023-01-09T20:46:24.286Z,12.60
2023-01-09T20:48:50.875Z,11.07
2023-01-09T20:51:18.019Z,9.90
2023-01-09T20:53:46.003Z,14.57
2023-01-09T20:56:13.020Z,11.23
2023-01-09T20:58:42.256Z,10.80
2023-01-09T21:01:11.731Z,10.43
2023-01-09T21:03:38.854Z,11.27
2023-01-09T21:06:07.720Z,13.53
2023-01-09T21:08:34.892Z,9.03
2023-01-09T21:11:02.466Z,11.60
2023-01-09T21:13:29.503Z,11.10
2023-01-09T21:16:24.538Z,9.40
2023-01-09T21:19:00.041Z,8.07
2023-01-09T21:21:29.452Z,15.97
2023-01-09T21:23:58.324Z,10.30
2023-01-09T21:26:37.188Z,8.50
2023-01-09T21:29:08.349Z,13.23
2023-01-09T21:31:35.443Z,11.00
2023-01-09T21:34:04.917Z,14.10
2023-01-09T21:36:32.100Z,9.50
2023-01-09T21:38:59.600Z,8.47
2023-01-09T21:41:44.412Z,10.00
2023-01-09T21:44:32.420Z,11.47
2023-01-09T21:47:00.330Z,10.47
2023-01-09T21:49:29.676Z,7.63
2023-01-09T21:51:56.224Z,6.83
2023-01-09T21:54:24.334Z,8.63
2023-01-09T21:56:51.918Z,9.13
2023-01-09T21:59:19.408Z,9.43
2023-01-09T22:01:46.275Z,10.43
2023-01-09T22:04:15.174Z,8.63
2023-01-09T22:06:42.403Z,10.67
2023-01-09T22:09:10.184Z,12.13
2023-01-09T22:11:40.006Z,10.00
2023-01-09T22:14:06.975Z,9.60
2023-01-09T22:16:33.876Z,7.83
2023-01-09T22:19:00.702Z,8.93
2023-01-09T22:21:29.850Z,8.87
2023-01-09T22:23:56.606Z,10.23
2023-01-09T22:26:23.712Z,7.33
2023-01-09T22:28:50.985Z,9.17
2023-01-09T22:31:20.258Z,9.00
2023-01-09T22:33:55.117Z,9.73
2023-01-09T22:36:21.633Z,10.17
2023-01-09T22:38:48.178Z,9.30
2023-01-09T22:41:15.172Z,7.10
2023-01-09T22:43:44.012Z,12.00
2023-01-09T22:46:11.865Z,10.43
2023-01-09T22:48:39.408Z,8.13
2023-01-09T22:51:12.312Z,11.37
2023-01-09T22:53:39.580Z,9.10
2023-01-09T22:56:08.481Z,8.23
2023-01-09T22:58:35.011Z,9.93
2023-01-09T23:01:02.993Z,9.47
2023-01-09T23:03:29.643Z,10.37
2023-01-09T23:06:04.671Z,9.90
2023-01-09T23:08:32.276Z,11.93
2023-01-09T23:10:59.370Z,12.00
2023-01-09T23:13:26.165Z,9.77
2023-01-09T23:16:01.744Z,11.53
2023-01-09T23:18:30.940Z,12.60
2023-01-09T23:21:00.580Z,12.80
2023-01-09T23:23:29.655Z,10.90
2023-01-09T23:26:02.447Z,15.23
2023-01-09T23:28:30.607Z,14.63
2023-01-09T23:30:57.298Z,14.33
2023-01-09T23:33:23.929Z,12.90
2023-01-09T23:35:50.519Z,15.20
2023-01-09T23:38:17.047Z,10.73
2023-01-09T23:40:46.337Z,9.43
2023-01-09T23:43:16.948Z,13.87
2023-01-09T23:45:45.134Z,13.20
2023-01-09T23:48:16.764Z,11.27
2023-01-09T23:50:48.286Z,11.10
2023-01-09T23:53:15.044Z,11.27
2023-01-09T23:55:41.684Z,10.40
2023-01-09T23:58:08.457Z,14.07
